Gooch Mill, Missouri
Current Conditions -  °F | °C
As of 9:55 AM on Friday 28 Nov 2014 (Local Time) from KVER Reporting Station
Clear Clear  
Wind Chill: 39°   Ceiling: Unl
Heat Index: 45°   Visibility: 10mi
Dew Point: 28°   Wind: 12mph
Humidity: 52%   Direction: 190°S
Pressure: 30.04"   Gusts: NA
Location:  38.8814°N, 92.7602°W
Report Text: KVER 281555Z AUTO 19010KT 10SM CLR 07/M02 A3004 RMK AO2 T00701022
Loading
Personal Weather Stations






























Interactive Weather Map New forecast layout! Learn more

10-Day Weather Forecast

Advertisements
Track Severe Weather on mobile